createdAt,value
2019-05-11T00:01:31.675Z,5.80
2019-05-11T00:04:02.240Z,6.03
2019-05-11T00:06:32.886Z,6.83
2019-05-11T00:09:05.158Z,5.87
2019-05-11T00:11:35.924Z,5.83
2019-05-11T00:14:06.599Z,7.27
2019-05-11T00:16:37.150Z,6.70
2019-05-11T00:19:07.641Z,5.77
2019-05-11T00:21:38.152Z,7.03
2019-05-11T00:24:08.938Z,6.67
2019-05-11T00:26:39.664Z,6.07
2019-05-11T00:29:10.220Z,6.77
2019-05-11T00:31:41.145Z,9.30
2019-05-11T00:34:11.845Z,8.80
2019-05-11T00:36:42.610Z,8.00
2019-05-11T00:39:13.141Z,9.17
2019-05-11T00:41:43.725Z,8.67
2019-05-11T00:44:14.632Z,10.30
2019-05-11T00:46:45.186Z,9.30
2019-05-11T00:49:15.844Z,8.50
2019-05-11T00:51:47.512Z,6.93
2019-05-11T00:54:18.068Z,8.17
2019-05-11T00:56:48.900Z,7.10
2019-05-11T00:59:21.674Z,6.67
2019-05-11T01:01:51.602Z,6.57
2019-05-11T01:04:22.169Z,6.80
2019-05-11T01:06:52.694Z,7.60
2019-05-11T01:09:23.226Z,7.50
2019-05-11T01:11:54.086Z,9.50
2019-05-11T01:14:24.757Z,7.57
2019-05-11T01:16:55.319Z,7.03
2019-05-11T01:19:25.869Z,7.07
2019-05-11T01:21:56.387Z,7.03
2019-05-11T01:24:26.915Z,7.67
2019-05-11T01:27:00.144Z,7.37
2019-05-11T01:29:30.790Z,9.07
2019-05-11T01:32:01.351Z,9.33
2019-05-11T01:34:31.902Z,10.47
2019-05-11T01:37:02.409Z,10.50
2019-05-11T01:39:32.906Z,11.03
2019-05-11T01:42:03.436Z,11.33
2019-05-11T01:44:33.996Z,11.47
2019-05-11T01:47:04.487Z,12.13
2019-05-11T01:49:35.224Z,12.10
2019-05-11T01:52:05.797Z,11.77
2019-05-11T01:54:36.488Z,10.97
2019-05-11T01:57:07.056Z,11.87
2019-05-11T01:59:38.025Z,11.43
2019-05-11T02:02:08.502Z,11.40
2019-05-11T02:04:39.061Z,11.30
2019-05-11T02:07:09.541Z,10.23
2019-05-11T02:09:40.265Z,12.20
2019-05-11T02:12:10.876Z,11.77
2019-05-11T02:14:42.030Z,10.57
2019-05-11T02:17:12.572Z,14.07
2019-05-11T02:19:43.272Z,12.23
2019-05-11T02:22:14.129Z,11.90
2019-05-11T02:24:44.636Z,11.43
2019-05-11T02:27:15.140Z,12.27
2019-05-11T02:29:45.606Z,13.67
2019-05-11T02:32:16.106Z,14.43
2019-05-11T02:34:46.641Z,12.67
2019-05-11T02:37:17.209Z,13.77
2019-05-11T02:39:47.765Z,11.37
2019-05-11T02:42:18.302Z,14.20
2019-05-11T02:44:48.925Z,13.03
2019-05-11T02:47:19.493Z,12.90
2019-05-11T02:49:50.006Z,13.60
2019-05-11T02:52:21.064Z,16.27
2019-05-11T02:54:53.430Z,14.97
2019-05-11T02:57:23.992Z,15.93
2019-05-11T02:59:54.597Z,13.47
2019-05-11T03:02:25.110Z,16.17
2019-05-11T03:04:55.608Z,16.67
2019-05-11T03:07:26.150Z,19.33
2019-05-11T03:09:56.643Z,15.60
2019-05-11T03:12:27.241Z,15.73
2019-05-11T03:14:58.194Z,16.07
2019-05-11T03:17:32.501Z,18.10
2019-05-11T03:20:03.154Z,15.90
2019-05-11T05:45:50.740Z,11.67
2019-05-11T05:48:22.048Z,8.27
2019-05-11T05:50:52.508Z,10.47
2019-05-11T05:53:23.162Z,10.63
2019-05-11T05:55:53.723Z,12.43
2019-05-11T05:58:24.481Z,11.63
2019-05-11T06:00:54.979Z,10.97
2019-05-11T06:03:25.595Z,12.20
2019-05-11T06:05:56.247Z,10.70
2019-05-11T06:08:26.753Z,13.57
2019-05-11T06:10:57.273Z,11.67
2019-05-11T06:13:43.913Z,9.63
2019-05-11T06:16:00.013Z,10.63
2019-05-11T06:18:30.978Z,8.17
2019-05-11T06:21:01.781Z,6.60
2019-05-11T06:23:32.615Z,7.03
2019-05-11T06:26:03.221Z,7.90
2019-05-11T06:28:34.003Z,7.17
2019-05-11T06:31:04.802Z,6.43
2019-05-11T06:33:35.450Z,4.37
2019-05-11T06:36:06.185Z,5.27
2019-05-11T06:38:36.982Z,4.13
2019-05-11T06:41:07.728Z,4.10
2019-05-11T06:43:38.417Z,3.53
2019-05-11T06:46:09.883Z,4.23
2019-05-11T06:48:40.516Z,3.47
2019-05-11T06:51:11.279Z,5.33
2019-05-11T06:53:42.164Z,3.90
2019-05-11T06:56:13.075Z,4.90
2019-05-11T06:58:45.603Z,4.70
2019-05-11T07:01:16.108Z,3.83
2019-05-11T07:03:46.998Z,4.00
2019-05-11T07:06:17.477Z,4.60
2019-05-11T07:08:49.062Z,4.73
2019-05-11T07:11:21.026Z,4.70
2019-05-11T07:13:51.530Z,6.07
2019-05-11T07:16:22.284Z,4.47
2019-05-11T07:18:53.141Z,5.23
2019-05-11T07:21:23.958Z,6.23
2019-05-11T07:23:54.451Z,6.03
2019-05-11T07:26:25.064Z,6.33
2019-05-11T07:28:55.549Z,5.60
2019-05-11T07:31:26.304Z,6.43
2019-05-11T07:33:58.700Z,6.07
2019-05-11T07:36:29.068Z,5.77
2019-05-11T07:38:59.618Z,7.13
2019-05-11T07:41:30.221Z,6.37
2019-05-11T07:44:00.804Z,6.67
2019-05-11T07:46:31.413Z,7.33
2019-05-11T07:49:02.021Z,6.20
2019-05-11T07:51:32.867Z,7.37
2019-05-11T07:54:03.443Z,7.57
2019-05-11T07:56:34.465Z,7.27
2019-05-11T07:59:05.008Z,8.67
2019-05-11T08:01:38.371Z,8.47
2019-05-11T08:04:08.029Z,9.20
2019-05-11T08:06:39.206Z,10.03
2019-05-11T08:09:09.650Z,9.70
2019-05-11T08:11:40.273Z,9.83
2019-05-11T08:14:10.894Z,11.93
2019-05-11T08:16:41.546Z,11.77
2019-05-11T08:19:12.513Z,10.13
2019-05-11T08:21:43.148Z,9.17
2019-05-11T08:24:13.716Z,9.77
2019-05-11T08:26:44.263Z,9.83
2019-05-11T08:29:14.844Z,9.03
2019-05-11T08:31:45.378Z,9.23
2019-05-11T08:34:17.916Z,8.57
2019-05-11T08:36:48.171Z,9.07
2019-05-11T08:39:18.728Z,10.63
2019-05-11T08:41:49.308Z,9.63
2019-05-11T08:44:19.764Z,11.97
2019-05-11T08:46:50.341Z,8.73
2019-05-11T08:49:20.813Z,11.07
2019-05-11T08:51:51.351Z,7.73
2019-05-11T08:54:21.837Z,10.20
2019-05-11T08:56:52.347Z,9.03
2019-05-11T08:59:22.989Z,12.70
2019-05-11T09:01:53.572Z,10.70
2019-05-11T09:04:24.224Z,10.73
2019-05-11T09:06:54.800Z,12.07
2019-05-11T09:12:08.003Z,12.67
2019-05-11T09:14:38.876Z,13.07
2019-05-11T09:17:09.388Z,13.20
2019-05-11T09:19:40.122Z,14.73
2019-05-11T09:22:10.724Z,13.67
2019-05-11T09:24:41.642Z,13.83
2019-05-11T09:27:12.430Z,14.50
2019-05-11T09:29:43.072Z,13.77
2019-05-11T09:32:13.647Z,13.97
2019-05-11T09:34:44.221Z,12.33
2019-05-11T09:37:14.791Z,17.47
2019-05-11T09:39:47.733Z,16.60
2019-05-11T09:42:18.048Z,17.87
2019-05-11T09:44:48.710Z,17.27
2019-05-11T09:47:19.374Z,15.80
2019-05-11T09:49:51.062Z,15.60
2019-05-11T09:52:21.763Z,18.03
2019-05-11T09:54:52.251Z,18.10
2019-05-11T09:57:22.755Z,16.50
2019-05-11T09:59:53.368Z,15.27
2019-05-11T10:02:23.915Z,15.17
2019-05-11T10:04:54.555Z,14.00
2019-05-11T10:07:25.106Z,14.23
2019-05-11T10:09:55.790Z,14.60
2019-05-11T10:12:28.479Z,12.63
2019-05-11T10:14:59.212Z,14.23
2019-05-11T10:17:29.813Z,14.63
2019-05-11T10:20:00.404Z,15.77
2019-05-11T10:22:31.536Z,14.80
2019-05-11T10:25:02.290Z,17.33
2019-05-11T10:27:32.949Z,10.60
2019-05-11T10:30:03.904Z,13.17
2019-05-11T10:32:34.795Z,9.77
2019-05-11T10:35:07.789Z,11.13
2019-05-11T10:37:39.183Z,11.67
2019-05-11T10:40:09.840Z,13.30
2019-05-11T10:42:40.637Z,12.13
2019-05-11T10:45:11.799Z,13.93
2019-05-11T10:47:42.332Z,15.10
2019-05-11T10:50:13.102Z,10.67
2019-05-11T10:52:43.807Z,9.43
2019-05-11T10:55:15.096Z,11.47
2019-05-11T10:57:45.756Z,8.80
2019-05-11T11:03:05.493Z,9.70
2019-05-11T11:05:38.256Z,8.03
2019-05-11T11:08:08.496Z,8.60
2019-05-11T11:10:39.082Z,9.43
2019-05-11T11:13:09.689Z,10.07
2019-05-11T11:15:41.258Z,9.30
2019-05-11T11:18:11.895Z,9.20
2019-05-11T11:20:42.508Z,8.77
2019-05-11T11:26:02.707Z,8.43
2019-05-11T11:28:33.391Z,6.83
2019-05-11T11:31:03.991Z,7.17
2019-05-11T11:33:34.626Z,9.33
2019-05-11T11:36:05.314Z,6.70
2019-05-11T11:38:37.579Z,7.13
2019-05-11T11:41:08.258Z,6.47
2019-05-11T11:43:38.801Z,6.00
2019-05-11T11:46:09.323Z,8.80
2019-05-11T11:48:39.918Z,7.27
2019-05-11T11:51:10.501Z,8.97
2019-05-11T11:53:41.140Z,7.70
2019-05-11T11:56:11.774Z,6.43
2019-05-11T12:01:31.649Z,7.43
2019-05-11T12:04:02.159Z,5.20
2019-05-11T12:06:32.685Z,5.53
2019-05-11T12:09:04.524Z,4.93
2019-05-11T12:11:35.148Z,5.63
2019-05-11T12:14:05.715Z,5.00
2019-05-11T12:16:38.618Z,5.27
2019-05-11T12:19:08.597Z,5.80
2019-05-11T12:21:39.139Z,6.27
2019-05-11T12:24:09.787Z,6.87
2019-05-11T12:26:40.365Z,7.90
2019-05-11T12:29:10.951Z,7.90
2019-05-11T12:34:23.861Z,7.43
2019-05-11T12:36:54.330Z,5.80
2019-05-11T12:39:25.000Z,7.40
2019-05-11T12:41:55.476Z,6.87
2019-05-11T12:44:28.170Z,7.00
2019-05-11T12:46:58.498Z,6.33
2019-05-11T12:49:29.128Z,6.23
2019-05-11T12:51:59.647Z,6.00
2019-05-11T12:54:30.185Z,7.53
2019-05-11T12:57:00.885Z,6.53
2019-05-11T12:59:31.543Z,7.40
2019-05-11T13:02:02.193Z,5.97
2019-05-11T13:04:32.749Z,6.23
2019-05-11T13:07:03.302Z,4.90
2019-05-11T13:09:33.909Z,6.77
2019-05-11T13:12:04.507Z,5.30
2019-05-11T13:14:35.031Z,4.43
2019-05-11T13:17:07.708Z,6.03
2019-05-11T13:19:38.642Z,4.50
2019-05-11T13:22:09.293Z,4.87
2019-05-11T13:24:39.915Z,5.40
2019-05-11T13:27:10.641Z,4.80
2019-05-11T13:29:41.179Z,4.80
2019-05-11T13:32:11.868Z,5.57
2019-05-11T13:34:42.531Z,5.60
2019-05-11T13:37:13.149Z,5.63
2019-05-11T13:39:43.802Z,3.87
2019-05-11T13:42:14.326Z,4.40
2019-05-11T13:44:45.053Z,5.10
2019-05-11T13:47:17.520Z,4.27
2019-05-11T13:49:48.021Z,4.13
2019-05-11T13:52:18.707Z,4.60
2019-05-11T13:54:49.239Z,4.87
2019-05-11T13:57:19.847Z,4.77
2019-05-11T13:59:50.435Z,4.83
2019-05-11T14:02:21.111Z,4.03
2019-05-11T14:04:51.703Z,3.60
2019-05-11T14:07:22.234Z,3.83
2019-05-11T14:09:52.863Z,4.70
2019-05-11T14:12:23.455Z,5.62
2019-05-11T14:14:53.954Z,4.67
2019-05-11T14:17:24.553Z,5.43
2019-05-11T14:19:58.200Z,4.28
2019-05-11T14:22:28.143Z,4.63
2019-05-11T14:24:58.862Z,3.77
2019-05-11T14:27:29.538Z,3.87
2019-05-11T14:30:03.615Z,3.97
2019-05-11T14:32:32.491Z,3.93
2019-05-11T14:35:03.132Z,4.00
2019-05-11T14:37:33.770Z,3.67
2019-05-11T14:40:04.440Z,3.50
2019-05-11T14:42:35.022Z,3.70
2019-05-11T14:45:08.239Z,3.50
2019-05-11T14:47:38.778Z,3.63
2019-05-11T14:50:10.595Z,4.53
2019-05-11T14:52:41.175Z,3.30
2019-05-11T14:55:11.892Z,4.17
2019-05-11T14:57:42.507Z,4.43
2019-05-11T15:00:13.714Z,3.33
2019-05-11T15:02:49.183Z,3.63
2019-05-11T15:05:20.389Z,3.83
2019-05-11T15:07:52.766Z,4.10
2019-05-11T15:10:23.750Z,3.40
2019-05-11T15:12:54.291Z,5.13
2019-05-11T15:15:24.930Z,5.42
2019-05-11T15:17:57.960Z,3.20
2019-05-11T15:20:28.532Z,4.15
2019-05-11T15:22:59.243Z,3.70
2019-05-11T15:25:30.258Z,4.72
2019-05-11T15:28:00.790Z,4.28
2019-05-11T15:30:31.591Z,3.30
2019-05-11T15:33:02.234Z,3.33
2019-05-11T15:35:32.740Z,3.60
2019-05-11T15:38:03.334Z,3.42
2019-05-11T15:40:33.985Z,3.90
2019-05-11T15:43:04.604Z,3.70
2019-05-11T15:45:35.258Z,4.28
2019-05-11T15:48:08.244Z,3.87
2019-05-11T15:50:40.300Z,3.98
2019-05-11T15:53:10.335Z,3.60
2019-05-11T15:55:42.494Z,4.20
2019-05-11T15:58:14.185Z,2.77
2019-05-11T16:03:43.022Z,3.40
2019-05-11T16:06:13.581Z,4.35
2019-05-11T16:08:45.602Z,3.45
2019-05-11T16:11:18.025Z,2.62
2019-05-11T16:13:48.624Z,2.90
2019-05-11T16:16:19.130Z,2.57
2019-05-11T16:18:50.736Z,4.83
2019-05-11T16:21:21.338Z,5.27
2019-05-11T16:23:52.978Z,3.47
2019-05-11T16:26:23.603Z,4.47
2019-05-11T16:28:54.220Z,3.00
2019-05-11T16:31:24.756Z,4.93
2019-05-11T16:33:55.329Z,4.70
2019-05-11T16:36:28.303Z,3.40
2019-05-11T16:38:58.168Z,5.63
2019-05-11T16:41:29.276Z,5.20
2019-05-11T16:43:59.847Z,5.10
2019-05-11T16:46:30.403Z,3.13
2019-05-11T16:49:01.044Z,4.80
2019-05-11T16:51:31.643Z,2.23
2019-05-11T16:54:02.171Z,4.27
2019-05-11T16:56:32.818Z,5.23
2019-05-11T16:59:03.378Z,2.87
2019-05-11T17:01:33.968Z,4.40
2019-05-11T17:04:04.469Z,3.60
2019-05-11T17:06:35.191Z,4.13
2019-05-11T17:09:08.950Z,3.90
2019-05-11T17:11:39.717Z,5.00
2019-05-11T17:14:10.260Z,5.10
2019-05-11T17:16:40.876Z,3.10
2019-05-11T17:19:11.350Z,2.80
2019-05-11T17:21:41.921Z,3.57
2019-05-11T17:24:12.522Z,3.93
2019-05-11T17:26:43.111Z,4.17
2019-05-11T17:29:13.701Z,6.47
2019-05-11T17:31:44.392Z,6.17
2019-05-11T17:36:59.987Z,6.00
2019-05-11T17:39:29.602Z,6.00
2019-05-11T17:42:00.177Z,4.07
2019-05-11T17:44:30.752Z,5.43
2019-05-11T17:47:01.343Z,3.27
2019-05-11T17:49:31.930Z,5.33
2019-05-11T17:52:02.411Z,5.57
2019-05-11T17:54:33.068Z,4.87
2019-05-11T17:57:03.706Z,4.03
2019-05-11T17:59:34.323Z,3.73
2019-05-11T18:02:04.932Z,3.63
2019-05-11T18:04:35.461Z,2.50
2019-05-11T18:07:06.024Z,6.17
2019-05-11T18:09:38.062Z,4.43
2019-05-11T18:12:09.925Z,7.83
2019-05-11T18:17:36.161Z,5.97
2019-05-11T18:20:16.853Z,4.67
2019-05-11T18:22:39.964Z,5.00
2019-05-11T18:25:13.884Z,9.00
2019-05-11T18:27:43.528Z,4.47
2019-05-11T18:30:14.172Z,4.77
2019-05-11T18:32:44.736Z,4.43
2019-05-11T18:35:15.295Z,4.97
2019-05-11T18:37:47.718Z,4.97
2019-05-11T18:40:18.834Z,2.77
2019-05-11T18:42:49.452Z,3.67
2019-05-11T18:45:20.062Z,5.70
2019-05-11T18:47:50.528Z,3.00
2019-05-11T18:50:30.434Z,4.50
2019-05-11T18:52:53.229Z,5.77
2019-05-11T18:55:23.795Z,4.80
2019-05-11T18:57:54.391Z,3.37
2019-05-11T19:00:24.966Z,6.30
2019-05-11T19:02:57.851Z,7.20
2019-05-11T19:05:29.167Z,6.43
2019-05-11T19:07:59.732Z,6.87
2019-05-11T19:10:30.307Z,4.47
2019-05-11T19:13:00.837Z,6.33
2019-05-11T19:15:31.512Z,5.00
2019-05-11T19:18:01.985Z,4.10
2019-05-11T19:20:44.633Z,7.37
2019-05-11T19:25:48.093Z,6.20
2019-05-11T19:28:18.841Z,6.87
2019-05-11T19:30:49.416Z,8.03
2019-05-11T19:33:19.956Z,6.27
2019-05-11T19:35:50.618Z,4.30
2019-05-11T19:38:21.217Z,6.40
2019-05-11T19:40:51.880Z,5.80
2019-05-11T19:43:22.484Z,6.60
2019-05-11T19:45:53.156Z,4.33
2019-05-11T19:48:23.740Z,6.20
2019-05-11T19:53:50.549Z,6.20
2019-05-11T19:56:21.110Z,8.33
2019-05-11T19:58:51.664Z,5.37
2019-05-11T20:01:22.209Z,6.13
2019-05-11T20:03:52.834Z,5.77
2019-05-11T20:06:23.444Z,7.70
2019-05-11T20:08:53.984Z,7.50
2019-05-11T20:11:24.497Z,8.60
2019-05-11T20:13:54.955Z,7.20
2019-05-11T20:16:25.524Z,5.80
2019-05-11T20:18:57.791Z,8.87
2019-05-11T20:21:29.445Z,9.03
2019-05-11T20:23:59.968Z,9.50
2019-05-11T20:26:30.449Z,7.97
2019-05-11T20:29:01.025Z,6.10
2019-05-11T20:31:31.586Z,4.70
2019-05-11T20:34:02.282Z,5.80
2019-05-11T20:36:33.034Z,4.47
2019-05-11T20:39:05.222Z,5.37
2019-05-11T20:41:38.458Z,5.77
2019-05-11T20:44:09.162Z,5.73
2019-05-11T20:46:39.703Z,5.33
2019-05-11T20:49:10.236Z,5.33
2019-05-11T20:51:40.788Z,5.07
2019-05-11T20:54:11.355Z,4.47
2019-05-11T20:56:41.904Z,4.80
2019-05-11T20:59:12.647Z,5.27
2019-05-11T21:01:43.227Z,6.07
2019-05-11T21:04:13.808Z,3.77
2019-05-11T21:06:47.328Z,7.03
2019-05-11T21:09:18.428Z,6.63
2019-05-11T21:11:49.089Z,6.23
2019-05-11T21:14:19.645Z,5.53
2019-05-11T21:16:50.206Z,6.93
2019-05-11T21:19:20.783Z,5.57
2019-05-11T21:24:33.920Z,9.03
2019-05-11T21:27:04.411Z,6.03
2019-05-11T21:29:34.934Z,5.47
2019-05-11T21:32:07.873Z,6.80
2019-05-11T21:34:38.325Z,4.50
2019-05-11T21:37:08.974Z,8.50
2019-05-11T21:39:39.587Z,7.20
2019-05-11T21:42:10.049Z,5.73
2019-05-11T21:44:40.558Z,6.40
2019-05-11T21:47:11.080Z,8.03
2019-05-11T21:49:41.640Z,8.93
2019-05-11T21:54:53.978Z,8.83
2019-05-11T21:57:24.460Z,7.27
2019-05-11T21:59:55.004Z,8.23
2019-05-11T22:02:25.616Z,6.03
2019-05-11T22:04:58.507Z,6.17
2019-05-11T22:07:28.388Z,3.90
2019-05-11T22:10:00.003Z,4.97
2019-05-11T22:12:30.520Z,4.93
2019-05-11T22:15:01.056Z,3.90
2019-05-11T22:17:31.620Z,4.73
2019-05-11T22:20:02.212Z,4.97
2019-05-11T22:22:32.806Z,7.07
2019-05-11T22:25:03.387Z,3.60
2019-05-11T22:27:33.934Z,4.27
2019-05-11T22:30:04.617Z,4.13
2019-05-11T22:32:37.778Z,6.60
2019-05-11T22:35:08.283Z,3.80
2019-05-11T22:37:39.194Z,5.57
2019-05-11T22:40:10.258Z,3.83
2019-05-11T22:42:40.850Z,4.80
2019-05-11T22:45:11.815Z,4.57
2019-05-11T22:47:42.377Z,5.50
2019-05-11T22:50:13.240Z,4.80
2019-05-11T22:52:44.823Z,6.20
2019-05-11T22:55:15.523Z,4.63
2019-05-11T22:57:48.426Z,3.27
2019-05-11T23:00:22.246Z,4.77
2019-05-11T23:02:52.804Z,6.73
2019-05-11T23:05:23.414Z,4.93
2019-05-11T23:07:53.940Z,3.07
2019-05-11T23:10:24.502Z,4.93
2019-05-11T23:12:55.086Z,3.40
2019-05-11T23:15:25.726Z,3.43
2019-05-11T23:17:59.713Z,4.37
2019-05-11T23:20:30.153Z,4.50
2019-05-11T23:23:01.660Z,3.60
2019-05-11T23:25:32.746Z,3.47
2019-05-11T23:28:03.373Z,3.13
2019-05-11T23:30:33.945Z,3.07
2019-05-11T23:33:04.558Z,6.53
2019-05-11T23:35:35.244Z,5.23
2019-05-11T23:38:05.758Z,4.37
2019-05-11T23:40:37.881Z,4.80
2019-05-11T23:43:09.027Z,4.40
2019-05-11T23:45:39.626Z,2.80
2019-05-11T23:48:10.104Z,2.17
2019-05-11T23:50:40.619Z,5.53
2019-05-11T23:53:11.311Z,1.93
2019-05-11T23:55:41.923Z,2.60
2019-05-11T23:58:12.531Z,5.13
